Surferswind
Wind dispatch · NL
Home / Spots / Grote kolk / Verloren Zeeg Slijk-Ewijk
51.89708° N · 5.78319° E Grote kolk · Overbetuwe

Verloren Zeeg Slijk-Ewijk Overbetuwe.

Curated wind dispatch for Verloren Zeeg Slijk-Ewijk. We'll write you a personal AI forecast for this spot the moment KNMI updates.

Kite Windsurf Wing
Track this spot.

Get a personal AI forecast for Verloren Zeeg Slijk-Ewijk straight to your dashboard. Free.

+ Track spot
Right now No-go
Direction
ENE 78°
Air
7.8°C
Precip
0.0 mm
The wind conditions remain consistently below the required threshold for kiteboarding throughout the forecast period, with only light breezes and occasional gu…

5-day wind

KNMI seamless · Updated 02:22

Forecast

Latest AI summary for this spot
No-go Kiteboarding

Kiteboarding Forecast for Verloren Zeeg Slijk-Ewijk

Thu 7 May, 12:41 → 12:41

LLM: gemini (gemini-3.1-flash-lite-preview)

Weather: open_meteo

The wind conditions remain consistently below the required threshold for kiteboarding throughout the forecast period, with only light breezes and occasional gusts peaking at 15.8 knots.

Best window: donderdag 7 mei 22:00 – vrijdag 8 mei 23:00

Why: Average wind speeds are significantly below the 12-knot minimum requirement.; Wind gusts are inconsistent and rarely reach sufficient strength for safe kiting.; The forecast shows a lack of sustained wind pressure.

Safety note: This is recreational advice. Always check local conditions and water safety regulations before heading out. Given the light and variable wind, there is a high risk of being unable to maintain upwind progress.

Reasons

  • Average wind speeds are significantly below the 12-knot minimum requirement.
  • Wind gusts are inconsistent and rarely reach sufficient strength for safe kiting.
  • The forecast shows a lack of sustained wind pressure.
The forecast

Hourly KNMI winds

Knots · arrow shows wind direction (where it's going)

Saturday, 9 May

23 hours
TimeWindGustDirectionTempPrecip
01:00 5.1kt 8.0 kt ENE (77°) 8.70°C 0.00 mm
02:00 3.9kt 7.2 kt ENE (78°) 7.80°C 0.00 mm
03:00 4.6kt 6.2 kt ENE (69°) 7.10°C 0.00 mm
04:00 4.3kt 6.2 kt ENE (58°) 6.60°C 0.00 mm
05:00 4.6kt 6.0 kt NE (55°) 6.10°C 0.00 mm
06:00 4.9kt 6.4 kt ENE (71°) 5.80°C 0.00 mm
07:00 4.3kt 6.6 kt ENE (68°) 6.60°C 0.00 mm
08:00 4.5kt 8.0 kt ENE (63°) 9.00°C 0.00 mm
09:00 4.5kt 9.0 kt ENE (63°) 11.50°C 0.00 mm
10:00 4.6kt 10.1 kt ENE (69°) 13.70°C 0.00 mm
11:00 4.9kt 10.9 kt ENE (76°) 15.50°C 0.00 mm
12:00 3.7kt 10.9 kt E (80°) 16.60°C 0.00 mm
13:00 2.5kt 9.9 kt E (83°) 17.20°C 0.00 mm
14:00 2.2kt 9.0 kt E (89°) 17.80°C 0.00 mm
15:00 2.9kt 9.5 kt ENE (70°) 18.40°C 0.00 mm
16:00 1.9kt 9.5 kt E (84°) 18.80°C 0.00 mm
17:00 1.0kt 8.2 kt ENE (57°) 18.90°C 0.00 mm
18:00 1.0kt 6.6 kt NNW (331°) 19.00°C 0.00 mm
19:00 2.9kt 7.4 kt NNW (341°) 18.90°C 0.00 mm
20:00 3.3kt 7.0 kt N (358°) 17.80°C 0.00 mm
21:00 5.6kt 10.1 kt NNW (344°) 15.30°C 0.00 mm
22:00 4.3kt 8.4 kt NNW (339°) 13.00°C 0.00 mm
23:00 4.5kt 6.2 kt NNW (330°) 11.40°C 0.00 mm

Sunday, 10 May

24 hours
TimeWindGustDirectionTempPrecip
00:00 4.6kt 6.0 kt NW (326°) 9.90°C 0.00 mm
01:00 4.3kt 6.8 kt N (10°) 9.00°C 0.00 mm
02:00 3.7kt 5.2 kt ENE (61°) 9.00°C 0.00 mm
03:00 4.3kt 5.5 kt NNE (28°) 8.30°C 0.00 mm
04:00 5.8kt 8.2 kt NNE (19°) 8.30°C 0.00 mm
05:00 5.5kt 8.4 kt NNE (33°) 8.40°C 0.00 mm
06:00 4.1kt 8.0 kt NE (44°) 7.80°C 0.00 mm
07:00 5.6kt 8.7 kt N (352°) 8.00°C 0.00 mm
08:00 4.3kt 8.5 kt NNE (24°) 10.50°C 0.00 mm
09:00 7.4kt 13.6 kt NNE (23°) 13.20°C 0.00 mm
10:00 8.7kt 17.5 kt NNE (28°) 14.30°C 0.00 mm
11:00 9.5kt 17.7 kt NNE (27°) 15.50°C 0.00 mm
12:00 9.5kt 18.3 kt NNE (31°) 17.20°C 0.00 mm
13:00 8.4kt 18.5 kt NE (34°) 18.50°C 0.00 mm
14:00 8.4kt 16.9 kt NNE (28°) 19.00°C 0.00 mm
15:00 9.0kt 17.3 kt NNE (25°) 19.30°C 0.00 mm
16:00 9.1kt 17.7 kt NNE (26°) 18.80°C 0.00 mm
17:00 10.3kt 18.8 kt NNE (26°) 18.30°C 0.00 mm
18:00 9.9kt 19.1 kt NNE (25°) 17.70°C 0.00 mm
19:00 12.6kt 22.1 kt NNE (22°) 16.30°C 0.00 mm
20:00 11.4kt 22.1 kt NNE (24°) 15.00°C 0.00 mm
21:00 12.0kt 21.2 kt NNE (23°) 13.10°C 0.00 mm
22:00 11.4kt 21.0 kt NNE (23°) 11.40°C 0.00 mm
23:00 10.1kt 20.0 kt NNE (30°) 10.10°C 0.00 mm

Monday, 11 May

24 hours
TimeWindGustDirectionTempPrecip
00:00 10.5kt 18.3 kt NNE (24°) 9.00°C 0.00 mm
01:00 10.5kt 18.3 kt NNE (24°) 8.20°C 0.00 mm
02:00 9.9kt 18.3 kt NNE (30°) 7.80°C 0.00 mm
03:00 10.3kt 18.1 kt NNE (27°) 7.30°C 0.00 mm
04:00 10.5kt 19.1 kt NNE (26°) 6.80°C 0.00 mm
05:00 9.7kt 18.3 kt NNE (23°) 6.50°C 0.00 mm
06:00 9.0kt 17.1 kt NNE (16°) 6.00°C 0.00 mm
07:00 8.0kt 15.2 kt NNE (15°) 6.10°C 0.00 mm
08:00 8.7kt 16.1 kt NNE (20°) 7.20°C 0.00 mm
09:00 7.9kt 15.9 kt NNE (15°) 8.50°C 0.00 mm
10:00 7.8kt 15.9 kt S (178°) 9.90°C 0.00 mm
11:00 8.6kt 18.3 kt W (259°) 11.60°C 0.00 mm
12:00 8.8kt 19.1 kt NNW (329°) 12.20°C 0.00 mm
13:00 9.7kt 19.8 kt NW (319°) 12.50°C 0.00 mm
14:00 10.6kt 21.2 kt NW (309°) 11.50°C 0.10 mm
15:00 10.0kt 22.0 kt NNW (329°) 10.10°C 0.20 mm
16:00 10.0kt 20.8 kt NW (324°) 10.90°C 0.00 mm
17:00 11.3kt 22.9 kt NW (322°) 11.20°C 0.10 mm
18:00 11.5kt 22.7 kt NNW (328°) 10.90°C 0.00 mm
19:00 11.0kt 22.9 kt NNW (330°) 9.90°C 0.00 mm
20:00 9.4kt 22.1 kt NNW (330°) 9.10°C 0.00 mm
21:00 8.3kt 18.1 kt NNW (327°) 8.50°C 0.00 mm
22:00 7.3kt 15.6 kt NW (323°) 7.80°C 0.00 mm
23:00 6.2kt 13.6 kt NW (311°) 7.30°C 0.00 mm